Time;durP1;ratioP1;P1;durP2;ratioP2;P2;SDS_P1;SDS_P2;PMS_P1;PMS_P2;Temp;Humidity;BMP_temperature;BMP_pressure;BME280_temperature;BME280_humidity;BME280_pressure;Samples;Min_cycle;Max_cycle;Signal;HPM_P1;HPM_P2
2021/09/18 00:00:11;;;;;;;;;;;19.70;97.30;;;;;;5075246;28;19935;-70
2021/09/18 00:02:39;;;;;;;;;;;19.70;96.90;;;;;;5074846;28;20011;-70
2021/09/18 00:05:06;;;;;;;;;;;19.80;97.20;;;;;;5074680;28;19912;-69
2021/09/18 00:07:33;;;;;;;;;;;19.90;96.70;;;;;;5075095;28;19916;-70
2021/09/18 00:09:59;;;;;;;;;;;19.90;96.80;;;;;;5075337;28;19987;-68
2021/09/18 00:12:26;;;;;;;;;;;19.90;96.50;;;;;;5075117;28;20381;-70
2021/09/18 00:14:52;;;;;;;;;;;20.00;96.30;;;;;;5075023;28;19909;-70
2021/09/18 00:17:19;;;;;;;;;;;20.10;96.30;;;;;;5074644;28;20386;-70
2021/09/18 00:19:46;;;;;;;;;;;20.10;96.00;;;;;;5074543;28;19931;-69
2021/09/18 00:22:13;;;;;;;;;;;20.10;96.10;;;;;;5074172;28;20350;-69
2021/09/18 00:24:40;;;;;;;;;;;20.20;95.60;;;;;;5074839;28;20329;-69
2021/09/18 00:27:07;;;;;;;;;;;20.30;95.70;;;;;;5074728;28;19908;-69
2021/09/18 00:29:33;;;;;;;;;;;20.30;95.60;;;;;;5072870;28;19908;-70
2021/09/18 00:32:00;;;;;;;;;;;20.30;95.70;;;;;;5074660;28;19962;-69
2021/09/18 00:34:27;;;;;;;;;;;20.30;95.90;;;;;;5106880;28;19908;-70
2021/09/18 00:36:53;;;;;;;;;;;20.30;95.90;;;;;;5073933;28;19908;-71
2021/09/18 00:39:20;;;;;;;;;;;20.20;95.90;;;;;;5074570;28;19917;-69
2021/09/18 00:41:47;;;;;;;;;;;20.20;95.80;;;;;;5074281;28;19952;-70
2021/09/18 00:44:17;;;;;;;;;;;20.20;96.00;;;;;;5074362;28;19916;-70
2021/09/18 00:46:47;;;;;;;;;;;20.30;96.00;;;;;;5074580;28;20274;-71
2021/09/18 00:49:14;;;;;;;;;;;20.30;95.80;;;;;;5074404;28;19963;-70
2021/09/18 00:51:41;;;;;;;;;;;20.30;95.60;;;;;;5073498;28;19919;-69
2021/09/18 00:54:09;;;;;;;;;;;20.40;95.70;;;;;;5074098;28;19909;-70
2021/09/18 00:56:36;;;;;;;;;;;20.30;95.60;;;;;;5106274;28;19915;-69
2021/09/18 00:59:03;;;;;;;;;;;20.30;96.00;;;;;;5073958;28;19908;-69
2021/09/18 01:01:29;;;;;;;;;;;20.40;95.70;;;;;;5073904;28;19916;-70
2021/09/18 01:03:56;;;;;;;;;;;20.40;95.70;;;;;;5073891;28;20382;-71
2021/09/18 01:06:23;;;;;;;;;;;20.50;96.10;;;;;;5073302;28;19912;-69
2021/09/18 01:08:53;;;;;;;;;;;20.50;95.80;;;;;;5073780;28;19908;-69
2021/09/18 01:11:20;;;;;;;;;;;20.50;95.80;;;;;;5073741;28;19930;-69
2021/09/18 01:13:46;;;;;;;;;;;20.60;95.50;;;;;;5073559;28;19912;-70
2021/09/18 01:16:13;;;;;;;;;;;20.60;95.00;;;;;;5073308;28;19915;-69
2021/09/18 01:18:40;;;;;;;;;;;20.80;94.70;;;;;;5073573;28;19909;-69
2021/09/18 01:21:09;;;;;;;;;;;20.80;94.70;;;;;;5073153;28;19951;-69
2021/09/18 01:23:35;;;;;;;;;;;20.90;94.80;;;;;;5073780;28;20016;-69
2021/09/18 01:26:02;;;;;;;;;;;20.90;94.70;;;;;;5074862;28;19931;-69
2021/09/18 01:28:29;;;;;;;;;;;20.90;94.30;;;;;;5074858;28;19912;-70
2021/09/18 01:30:56;;;;;;;;;;;20.90;94.50;;;;;;5073972;28;19912;-70
2021/09/18 01:33:23;;;;;;;;;;;20.90;94.60;;;;;;5073487;28;19908;-69
2021/09/18 01:35:49;;;;;;;;;;;20.90;94.30;;;;;;5072369;28;19944;-70
2021/09/18 01:38:16;;;;;;;;;;;21.00;94.50;;;;;;5073358;28;19916;-69
2021/09/18 01:40:46;;;;;;;;;;;21.00;94.80;;;;;;5105801;28;20355;-70
2021/09/18 01:43:12;;;;;;;;;;;20.90;94.70;;;;;;5072965;28;19916;-70
2021/09/18 01:45:40;;;;;;;;;;;21.00;94.40;;;;;;5072899;28;19939;-70
2021/09/18 01:48:08;;;;;;;;;;;21.10;94.60;;;;;;5073129;28;20378;-69
2021/09/18 01:50:43;;;;;;;;;;;21.20;94.50;;;;;;5072387;28;19921;-70
2021/09/18 01:53:10;;;;;;;;;;;21.20;94.90;;;;;;5073011;28;20422;-70
2021/09/18 01:55:37;;;;;;;;;;;21.20;94.60;;;;;;5072702;28;19908;-69
2021/09/18 01:58:04;;;;;;;;;;;21.30;94.40;;;;;;5072824;28;19982;-71
2021/09/18 02:00:31;;;;;;;;;;;21.30;94.40;;;;;;5072647;28;19913;-69
2021/09/18 02:02:58;;;;;;;;;;;21.30;94.90;;;;;;5072853;28;19916;-69
2021/09/18 02:05:25;;;;;;;;;;;21.30;94.70;;;;;;5072066;28;19915;-70
2021/09/18 02:07:54;;;;;;;;;;;21.50;94.20;;;;;;5072380;28;20283;-70
2021/09/18 02:10:21;;;;;;;;;;;21.50;94.40;;;;;;5072188;28;19962;-69
2021/09/18 02:12:48;;;;;;;;;;;21.60;94.40;;;;;;5073334;28;20244;-70
2021/09/18 02:15:16;;;;;;;;;;;21.60;94.70;;;;;;5073298;28;20434;-69
2021/09/18 02:17:43;;;;;;;;;;;21.60;94.60;;;;;;5077031;28;19962;-69
2021/09/18 02:20:11;;;;;;;;;;;21.70;94.50;;;;;;5083362;28;20256;-70
2021/09/18 02:22:38;;;;;;;;;;;21.80;94.10;;;;;;5083415;28;20192;-71
2021/09/18 02:25:05;;;;;;;;;;;21.90;93.90;;;;;;5093983;28;19990;-70
2021/09/18 02:27:32;;;;;;;;;;;22.00;93.70;;;;;;5114975;27;19948;-69
2021/09/18 02:29:59;;;;;;;;;;;22.00;94.00;;;;;;5082615;28;19908;-69
2021/09/18 02:32:25;;;;;;;;;;;22.00;93.80;;;;;;5076665;28;20400;-69
2021/09/18 02:34:52;;;;;;;;;;;22.00;93.90;;;;;;5073335;28;19915;-69
2021/09/18 02:37:20;;;;;;;;;;;22.10;93.90;;;;;;5073964;28;19952;-68
2021/09/18 02:39:46;;;;;;;;;;;22.00;94.00;;;;;;5072957;28;20003;-67
2021/09/18 02:42:13;;;;;;;;;;;22.10;94.10;;;;;;5073633;28;19916;-69
2021/09/18 02:44:40;;;;;;;;;;;22.10;94.10;;;;;;5072139;28;19908;-69
2021/09/18 02:47:07;;;;;;;;;;;22.20;94.40;;;;;;5070994;28;19912;-69
2021/09/18 02:49:34;;;;;;;;;;;22.10;95.00;;;;;;5072073;28;19921;-69
2021/09/18 02:52:00;;;;;;;;;;;21.90;96.20;;;;;;5072327;28;19908;-69
2021/09/18 02:54:27;;;;;;;;;;;22.00;96.80;;;;;;5104638;28;19940;-69
2021/09/18 02:56:54;;;;;;;;;;;21.90;97.00;;;;;;5071179;28;19913;-69
2021/09/18 02:59:21;;;;;;;;;;;22.00;97.20;;;;;;5072298;28;20050;-70
2021/09/18 03:01:48;;;;;;;;;;;21.90;97.40;;;;;;5072319;28;20355;-70
2021/09/18 03:04:14;;;;;;;;;;;21.90;97.70;;;;;;5072412;28;20282;-70
2021/09/18 03:06:41;;;;;;;;;;;21.90;97.90;;;;;;5073635;28;20343;-69
2021/09/18 03:09:08;;;;;;;;;;;21.80;98.50;;;;;;5073328;28;19912;-69
2021/09/18 03:11:34;;;;;;;;;;;21.80;98.70;;;;;;5071836;28;20262;-69
2021/09/18 03:14:01;;;;;;;;;;;21.70;98.00;;;;;;5071832;28;19935;-69
2021/09/18 03:16:27;;;;;;;;;;;21.50;98.70;;;;;;5072276;28;19954;-69
2021/09/18 03:18:54;;;;;;;;;;;21.50;99.30;;;;;;5072250;28;19915;-69
2021/09/18 03:21:21;;;;;;;;;;;21.50;99.60;;;;;;5072050;28;20023;-69
2021/09/18 03:23:47;;;;;;;;;;;21.70;99.60;;;;;;5090680;28;20290;-70
2021/09/18 03:26:14;;;;;;;;;;;21.80;99.60;;;;;;5075899;28;19909;-69
2021/09/18 03:28:41;;;;;;;;;;;21.80;99.80;;;;;;5075954;28;20325;-68
2021/09/18 03:31:07;;;;;;;;;;;21.70;99.60;;;;;;5075860;28;19950;-70
2021/09/18 03:33:35;;;;;;;;;;;21.60;99.10;;;;;;5108607;28;20418;-68
2021/09/18 03:36:02;;;;;;;;;;;21.40;99.50;;;;;;5091623;28;19913;-70
2021/09/18 03:38:29;;;;;;;;;;;21.30;99.70;;;;;;5076059;28;19912;-68
2021/09/18 03:40:55;;;;;;;;;;;21.30;99.80;;;;;;5076044;28;20251;-68
2021/09/18 03:43:22;;;;;;;;;;;21.30;99.90;;;;;;5091196;28;20344;-69
2021/09/18 03:45:51;;;;;;;;;;;21.20;99.90;;;;;;5075348;28;19935;-68
2021/09/18 03:48:17;;;;;;;;;;;21.10;99.90;;;;;;5107973;28;19920;-69
2021/09/18 03:50:44;;;;;;;;;;;21.00;99.90;;;;;;5075367;28;20353;-69
2021/09/18 03:53:11;;;;;;;;;;;20.70;99.90;;;;;;5075378;28;19958;-69
2021/09/18 03:55:39;;;;;;;;;;;20.30;99.90;;;;;;5075179;28;19916;-69
2021/09/18 03:58:05;;;;;;;;;;;19.90;99.90;;;;;;5075265;28;20260;-68
2021/09/18 04:00:32;;;;;;;;;;;19.60;99.90;;;;;;5075324;28;20327;-70
2021/09/18 04:02:59;;;;;;;;;;;19.30;99.90;;;;;;5075083;28;19943;-68
2021/09/18 04:05:25;;;;;;;;;;;19.00;99.90;;;;;;5075176;28;20420;-68
2021/09/18 04:07:52;;;;;;;;;;;18.80;99.90;;;;;;5075833;28;19908;-69
2021/09/18 04:10:19;;;;;;;;;;;18.60;99.90;;;;;;5075266;28;19908;-69
2021/09/18 04:12:46;;;;;;;;;;;18.40;99.90;;;;;;5073952;28;20394;-71
2021/09/18 04:15:12;;;;;;;;;;;18.40;99.90;;;;;;5075172;28;19908;-69
2021/09/18 04:17:39;;;;;;;;;;;18.40;99.90;;;;;;5074885;28;20282;-70
2021/09/18 04:20:06;;;;;;;;;;;18.30;99.90;;;;;;5075284;28;20369;-69
2021/09/18 04:22:33;;;;;;;;;;;18.20;99.90;;;;;;5075084;28;19940;-71
2021/09/18 04:25:00;;;;;;;;;;;18.10;99.90;;;;;;5074886;28;19995;-71
2021/09/18 04:27:26;;;;;;;;;;;17.90;99.90;;;;;;5074790;28;20409;-70
2021/09/18 04:29:53;;;;;;;;;;;17.90;99.90;;;;;;5074467;28;19909;-71
2021/09/18 04:32:20;;;;;;;;;;;17.90;99.90;;;;;;5074773;28;19909;-71
2021/09/18 04:34:46;;;;;;;;;;;17.90;99.90;;;;;;5074140;28;20011;-71
2021/09/18 04:37:13;;;;;;;;;;;17.90;99.90;;;;;;5074906;28;19913;-71
2021/09/18 04:39:40;;;;;;;;;;;17.90;99.90;;;;;;5076328;28;19971;-71
2021/09/18 04:42:06;;;;;;;;;;;18.00;99.90;;;;;;5077015;28;20003;-70
2021/09/18 04:44:33;;;;;;;;;;;18.00;99.90;;;;;;5077052;28;20362;-69
2021/09/18 04:47:00;;;;;;;;;;;17.90;99.90;;;;;;5074553;28;20494;-71
2021/09/18 04:49:27;;;;;;;;;;;17.90;99.90;;;;;;5074519;28;19928;-71
2021/09/18 04:51:53;;;;;;;;;;;18.00;99.90;;;;;;5074223;28;19909;-69
2021/09/18 04:54:20;;;;;;;;;;;18.10;99.90;;;;;;5074457;28;19909;-71
2021/09/18 04:56:47;;;;;;;;;;;18.00;99.90;;;;;;5074497;28;19908;-70
2021/09/18 04:59:13;;;;;;;;;;;18.10;99.90;;;;;;5074453;28;19914;-70
2021/09/18 05:01:40;;;;;;;;;;;18.10;99.90;;;;;;5074140;28;20058;-70
2021/09/18 05:04:07;;;;;;;;;;;18.10;99.90;;;;;;5074201;28;19916;-71
2021/09/18 05:06:34;;;;;;;;;;;18.10;99.90;;;;;;5072770;28;20355;-70
2021/09/18 05:09:00;;;;;;;;;;;18.20;99.90;;;;;;5074066;28;19912;-69
2021/09/18 05:11:27;;;;;;;;;;;18.10;99.90;;;;;;5074058;28;19991;-69
2021/09/18 05:13:54;;;;;;;;;;;18.20;99.90;;;;;;5073629;28;19979;-67
2021/09/18 05:16:20;;;;;;;;;;;18.20;99.90;;;;;;5073983;28;19916;-68
2021/09/18 05:18:47;;;;;;;;;;;18.20;99.90;;;;;;5073991;28;19914;-69
2021/09/18 05:21:14;;;;;;;;;;;18.30;99.90;;;;;;5073793;28;19909;-71
2021/09/18 05:23:40;;;;;;;;;;;18.20;99.90;;;;;;5073530;28;19920;-69
2021/09/18 05:26:07;;;;;;;;;;;18.10;99.90;;;;;;5073185;28;19908;-70
2021/09/18 05:28:34;;;;;;;;;;;18.00;99.90;;;;;;5073516;28;19999;-71
2021/09/18 05:31:02;;;;;;;;;;;17.80;99.90;;;;;;5073675;28;19908;-71
2021/09/18 05:33:29;;;;;;;;;;;17.80;99.90;;;;;;5073280;28;19915;-69
2021/09/18 05:35:56;;;;;;;;;;;17.90;99.90;;;;;;5073424;28;19909;-71
2021/09/18 05:38:24;;;;;;;;;;;18.00;99.90;;;;;;5073607;28;20007;-71
2021/09/18 05:40:51;;;;;;;;;;;18.10;99.90;;;;;;5073725;28;19912;-70
2021/09/18 05:43:17;;;;;;;;;;;18.10;99.90;;;;;;5073113;28;20371;-70
2021/09/18 05:45:44;;;;;;;;;;;18.20;99.90;;;;;;5072555;28;19984;-71
2021/09/18 05:48:11;;;;;;;;;;;18.30;99.90;;;;;;5073324;28;20302;-71
2021/09/18 05:50:37;;;;;;;;;;;18.30;99.90;;;;;;5105695;28;19921;-70
2021/09/18 05:53:04;;;;;;;;;;;18.30;99.90;;;;;;5073179;28;19954;-70
2021/09/18 05:55:31;;;;;;;;;;;18.40;99.90;;;;;;5073002;28;19913;-69
2021/09/18 05:57:57;;;;;;;;;;;18.30;99.90;;;;;;5073100;28;19909;-72
2021/09/18 06:00:24;;;;;;;;;;;18.30;99.90;;;;;;5105569;28;20279;-71
2021/09/18 06:02:51;;;;;;;;;;;18.40;99.90;;;;;;5072880;28;20254;-71
2021/09/18 06:05:17;;;;;;;;;;;18.30;99.90;;;;;;5072935;28;19908;-70
2021/09/18 06:07:44;;;;;;;;;;;18.40;99.90;;;;;;5072681;28;19909;-72
2021/09/18 06:10:11;;;;;;;;;;;18.30;99.90;;;;;;5073084;28;19912;-71
2021/09/18 06:12:38;;;;;;;;;;;18.40;99.90;;;;;;5072807;28;20386;-69
2021/09/18 06:15:05;;;;;;;;;;;18.40;99.90;;;;;;5073010;28;19962;-70
2021/09/18 06:17:31;;;;;;;;;;;18.50;99.90;;;;;;5073457;28;19920;-69
2021/09/18 06:19:59;;;;;;;;;;;18.50;99.90;;;;;;5074716;28;19912;-69
2021/09/18 06:22:29;;;;;;;;;;;18.50;99.90;;;;;;5075227;28;19917;-70
2021/09/18 06:24:56;;;;;;;;;;;18.60;99.90;;;;;;5072905;28;19922;-69
2021/09/18 06:27:22;;;;;;;;;;;18.60;99.90;;;;;;5072699;28;20333;-69
2021/09/18 06:29:49;;;;;;;;;;;18.60;99.90;;;;;;5072370;28;19951;-71
2021/09/18 06:32:16;;;;;;;;;;;18.70;99.90;;;;;;5072475;28;19954;-69
2021/09/18 06:34:42;;;;;;;;;;;18.70;99.90;;;;;;5073723;28;20402;-70
2021/09/18 06:37:09;;;;;;;;;;;18.80;99.90;;;;;;5072355;28;19915;-68
2021/09/18 06:39:36;;;;;;;;;;;18.80;99.90;;;;;;5072154;28;19915;-69
2021/09/18 06:42:03;;;;;;;;;;;18.90;99.90;;;;;;5072218;28;19912;-70
2021/09/18 06:44:29;;;;;;;;;;;18.90;99.90;;;;;;5072411;28;19962;-70
2021/09/18 06:46:56;;;;;;;;;;;18.90;99.90;;;;;;5072158;28;20367;-69
2021/09/18 06:49:23;;;;;;;;;;;18.90;99.90;;;;;;5071614;28;19946;-69
2021/09/18 06:51:49;;;;;;;;;;;18.90;99.90;;;;;;5072150;28;19909;-70
2021/09/18 06:54:16;;;;;;;;;;;18.90;99.90;;;;;;5072231;28;19999;-68
2021/09/18 06:56:43;;;;;;;;;;;18.90;99.90;;;;;;5073931;28;19908;-68
2021/09/18 06:59:09;;;;;;;;;;;19.00;99.90;;;;;;5076340;28;19908;-69
2021/09/18 07:01:36;;;;;;;;;;;18.90;99.90;;;;;;5076162;28;19913;-69
2021/09/18 07:04:03;;;;;;;;;;;18.90;99.90;;;;;;5076041;28;20378;-71
2021/09/18 07:06:29;;;;;;;;;;;18.80;99.90;;;;;;5076247;28;19909;-69
2021/09/18 07:08:56;;;;;;;;;;;18.80;99.90;;;;;;5076168;28;19909;-68
2021/09/18 07:11:22;;;;;;;;;;;18.80;99.90;;;;;;5076082;28;20367;-68
2021/09/18 07:13:49;;;;;;;;;;;18.70;99.90;;;;;;5075729;28;20418;-68
2021/09/18 07:16:16;;;;;;;;;;;18.70;99.90;;;;;;5075978;28;19908;-70
2021/09/18 07:18:42;;;;;;;;;;;18.70;99.90;;;;;;5075559;28;20313;-70
2021/09/18 07:21:09;;;;;;;;;;;18.70;99.90;;;;;;5076321;28;20283;-69
2021/09/18 07:23:36;;;;;;;;;;;18.70;99.90;;;;;;5075799;28;20018;-70
2021/09/18 07:26:03;;;;;;;;;;;18.70;99.90;;;;;;5075909;28;19915;-69
2021/09/18 07:28:30;;;;;;;;;;;18.70;99.90;;;;;;5075507;28;20125;-69
2021/09/18 07:30:56;;;;;;;;;;;18.70;99.90;;;;;;5075604;28;20317;-69
2021/09/18 07:33:23;;;;;;;;;;;18.80;99.90;;;;;;5075149;28;20282;-69
2021/09/18 07:35:49;;;;;;;;;;;18.80;99.90;;;;;;5075457;28;20386;-69
2021/09/18 07:38:16;;;;;;;;;;;18.80;99.90;;;;;;5075694;28;20347;-70
2021/09/18 07:40:43;;;;;;;;;;;18.80;99.90;;;;;;5075830;28;19936;-69
2021/09/18 07:43:11;;;;;;;;;;;18.70;99.90;;;;;;5075376;28;19960;-69
2021/09/18 07:45:37;;;;;;;;;;;18.60;99.90;;;;;;5075397;28;19909;-71
2021/09/18 07:48:04;;;;;;;;;;;18.60;99.90;;;;;;5074925;28;20359;-69
2021/09/18 07:50:31;;;;;;;;;;;18.40;99.90;;;;;;5075277;28;19928;-70
2021/09/18 07:52:58;;;;;;;;;;;18.40;99.90;;;;;;5074237;28;19913;-69
2021/09/18 07:55:26;;;;;;;;;;;18.30;99.90;;;;;;5075358;28;19909;-69
2021/09/18 07:57:52;;;;;;;;;;;18.30;99.90;;;;;;5076761;28;20424;-70
2021/09/18 08:00:19;;;;;;;;;;;18.20;99.90;;;;;;5077194;28;20374;-70
2021/09/18 08:02:46;;;;;;;;;;;18.20;99.90;;;;;;5077460;28;19917;-70
2021/09/18 08:05:12;;;;;;;;;;;18.20;99.90;;;;;;5075467;28;19915;-71
2021/09/18 08:07:39;;;;;;;;;;;18.20;99.90;;;;;;5074358;28;19913;-69
2021/09/18 08:10:10;;;;;;;;;;;18.10;99.90;;;;;;5075447;28;19908;-69
2021/09/18 08:12:37;;;;;;;;;;;18.10;99.90;;;;;;5074937;28;20374;-69
2021/09/18 08:15:04;;;;;;;;;;;18.00;99.90;;;;;;5075063;28;19908;-69
2021/09/18 08:17:31;;;;;;;;;;;18.00;99.90;;;;;;5106888;28;20048;-70
2021/09/18 08:19:57;;;;;;;;;;;18.10;99.90;;;;;;5071780;28;20337;-69
2021/09/18 08:22:25;;;;;;;;;;;18.10;99.90;;;;;;5072871;28;19916;-69
2021/09/18 08:24:54;;;;;;;;;;;18.10;99.90;;;;;;5072557;28;19965;-70
2021/09/18 08:27:21;;;;;;;;;;;18.10;99.90;;;;;;5073025;28;19909;-70
2021/09/18 08:29:48;;;;;;;;;;;18.00;99.90;;;;;;5072716;28;19909;-70
2021/09/18 08:32:15;;;;;;;;;;;18.00;99.90;;;;;;5072563;28;19972;-69
2021/09/18 08:34:42;;;;;;;;;;;18.00;99.90;;;;;;5072160;28;19908;-71
2021/09/18 08:37:09;;;;;;;;;;;18.00;99.90;;;;;;5072457;28;20010;-71
2021/09/18 08:39:38;;;;;;;;;;;18.00;99.90;;;;;;5072310;28;19909;-71
2021/09/18 08:42:05;;;;;;;;;;;18.00;99.90;;;;;;5116466;27;19954;-70
2021/09/18 08:44:33;;;;;;;;;;;17.90;99.90;;;;;;5091670;28;19939;-70
2021/09/18 08:47:01;;;;;;;;;;;17.90;99.90;;;;;;5092475;28;19914;-69
2021/09/18 08:49:28;;;;;;;;;;;17.90;99.90;;;;;;5091422;28;19920;-70
2021/09/18 08:51:55;;;;;;;;;;;18.00;99.90;;;;;;5091061;28;20018;-71
2021/09/18 08:54:22;;;;;;;;;;;18.00;99.90;;;;;;5092227;28;19966;-69
2021/09/18 08:56:48;;;;;;;;;;;18.00;99.90;;;;;;5091775;28;20366;-69
2021/09/18 08:59:15;;;;;;;;;;;18.00;99.90;;;;;;5090369;28;20414;-69
2021/09/18 09:01:41;;;;;;;;;;;18.00;99.90;;;;;;5091883;28;19959;-72
2021/09/18 09:04:09;;;;;;;;;;;17.90;99.90;;;;;;5092230;28;19927;-70
2021/09/18 09:06:41;;;;;;;;;;;18.00;99.90;;;;;;5092091;28;19951;-72
2021/09/18 09:09:08;;;;;;;;;;;18.00;99.90;;;;;;5090581;28;20450;-72
2021/09/18 09:11:34;;;;;;;;;;;17.90;99.90;;;;;;5091520;28;20003;-71
2021/09/18 09:14:05;;;;;;;;;;;18.00;99.90;;;;;;5091714;28;19916;-72
2021/09/18 09:16:36;;;;;;;;;;;17.90;99.90;;;;;;5091820;28;19915;-72
2021/09/18 09:19:16;;;;;;;;;;;17.90;99.90;;;;;;5091155;28;19959;-69
2021/09/18 09:21:47;;;;;;;;;;;17.80;99.90;;;;;;5091674;28;19912;-71
2021/09/18 09:24:15;;;;;;;;;;;17.80;99.90;;;;;;5091582;28;20018;-72
2021/09/18 09:26:42;;;;;;;;;;;17.70;99.90;;;;;;5091880;28;19916;-71
2021/09/18 09:29:09;;;;;;;;;;;17.70;99.90;;;;;;5091894;28;19915;-70
2021/09/18 09:31:37;;;;;;;;;;;17.70;99.90;;;;;;5091980;28;19964;-72
2021/09/18 09:34:07;;;;;;;;;;;17.60;99.90;;;;;;5091772;28;19931;-72
2021/09/18 09:36:38;;;;;;;;;;;17.60;99.90;;;;;;5094011;28;19908;-72
2021/09/18 09:39:06;;;;;;;;;;;17.60;99.90;;;;;;5094814;28;19930;-71
2021/09/18 09:41:33;;;;;;;;;;;17.50;99.90;;;;;;5093692;28;19912;-71
2021/09/18 09:44:07;;;;;;;;;;;17.60;99.90;;;;;;5091722;28;19975;-72
2021/09/18 09:46:34;;;;;;;;;;;17.50;99.90;;;;;;5092052;28;19915;-69
2021/09/18 09:49:06;;;;;;;;;;;17.40;99.90;;;;;;5091443;28;20363;-72
2021/09/18 09:51:32;;;;;;;;;;;17.40;99.90;;;;;;5091477;28;19912;-69
2021/09/18 09:54:18;;;;;;;;;;;17.40;99.90;;;;;;5091452;28;19912;-72
2021/09/18 09:56:49;;;;;;;;;;;17.40;99.90;;;;;;5091517;28;19909;-70
2021/09/18 09:59:28;;;;;;;;;;;17.40;99.90;;;;;;5091207;28;19908;-70
2021/09/18 10:01:55;;;;;;;;;;;17.40;99.90;;;;;;5090858;28;19912;-71
2021/09/18 10:04:22;;;;;;;;;;;17.40;99.90;;;;;;5090796;28;20010;-70
2021/09/18 10:06:49;;;;;;;;;;;17.40;99.90;;;;;;5091036;28;19908;-71
2021/09/18 10:09:16;;;;;;;;;;;17.30;99.90;;;;;;5090956;28;19912;-71
2021/09/18 10:11:43;;;;;;;;;;;17.30;99.90;;;;;;5090373;28;19912;-71
2021/09/18 10:14:14;;;;;;;;;;;17.30;99.90;;;;;;5090752;28;19908;-72
2021/09/18 10:16:41;;;;;;;;;;;17.30;99.90;;;;;;5089627;28;20398;-69
2021/09/18 10:19:10;;;;;;;;;;;17.30;99.90;;;;;;5090857;28;20378;-70
2021/09/18 10:24:22;;;;;;;;;;;17.30;99.90;;;;;;5090767;28;19931;-71
2021/09/18 10:27:06;;;;;;;;;;;17.20;99.90;;;;;;5090423;28;20316;-71
2021/09/18 10:29:33;;;;;;;;;;;17.20;99.90;;;;;;5090293;28;19912;-70
2021/09/18 10:32:01;;;;;;;;;;;17.20;99.90;;;;;;5090091;28;20015;-70
2021/09/18 10:34:28;;;;;;;;;;;17.20;99.90;;;;;;5090724;28;20344;-70
2021/09/18 10:36:55;;;;;;;;;;;17.20;99.90;;;;;;5090554;28;19962;-70
2021/09/18 10:39:21;;;;;;;;;;;17.10;99.40;;;;;;5090263;28;19916;-70
2021/09/18 10:41:51;;;;;;;;;;;17.10;99.90;;;;;;5089812;28;19916;-71
2021/09/18 10:44:19;;;;;;;;;;;17.10;99.90;;;;;;5090030;28;19918;-71
2021/09/18 10:46:50;;;;;;;;;;;17.10;99.90;;;;;;5090576;28;20272;-71
2021/09/18 10:49:32;;;;;;;;;;;17.00;99.90;;;;;;5090083;28;20293;-71
2021/09/18 10:52:33;;;;;;;;;;;17.00;99.90;;;;;;5090409;28;19908;-72
2021/09/18 10:55:00;;;;;;;;;;;17.00;99.60;;;;;;5078171;28;19915;-72
2021/09/18 10:57:27;;;;;;;;;;;16.90;99.90;;;;;;5089962;28;20161;-71
2021/09/18 10:59:54;;;;;;;;;;;16.90;99.90;;;;;;5090615;28;19908;-71
2021/09/18 11:02:36;;;;;;;;;;;16.90;99.90;;;;;;5090326;28;19918;-72
2021/09/18 11:05:06;;;;;;;;;;;16.80;99.90;;;;;;5090542;28;20004;-70
2021/09/18 11:07:42;;;;;;;;;;;16.80;99.90;;;;;;5090430;28;19919;-70
2021/09/18 11:10:11;;;;;;;;;;;16.80;99.90;;;;;;5091636;28;20612;-70
2021/09/18 11:12:37;;;;;;;;;;;16.70;99.90;;;;;;5091730;28;20274;-71
2021/09/18 11:15:06;;;;;;;;;;;16.70;99.60;;;;;;5092656;28;19979;-71
2021/09/18 11:17:34;;;;;;;;;;;16.70;99.90;;;;;;5090074;28;19914;-70
2021/09/18 11:20:17;;;;;;;;;;;16.70;99.90;;;;;;5089288;28;20008;-71
2021/09/18 11:22:45;;;;;;;;;;;16.60;99.90;;;;;;5090071;28;19916;-71
2021/09/18 11:25:33;;;;;;;;;;;16.60;99.90;;;;;;5090371;28;19921;-70
2021/09/18 11:28:09;;;;;;;;;;;16.50;99.60;;;;;;5090104;28;19974;-71
2021/09/18 11:30:38;;;;;;;;;;;16.60;99.70;;;;;;5090320;28;19908;-71
2021/09/18 11:33:05;;;;;;;;;;;16.50;99.90;;;;;;5090429;28;19908;-71
2021/09/18 11:35:32;;;;;;;;;;;16.50;99.40;;;;;;5088445;28;20004;-71
2021/09/18 11:38:00;;;;;;;;;;;16.50;99.40;;;;;;5089987;28;20372;-72
2021/09/18 11:40:27;;;;;;;;;;;16.50;99.40;;;;;;5090118;28;20019;-71
2021/09/18 11:42:58;;;;;;;;;;;16.40;99.50;;;;;;5089506;28;19916;-71
2021/09/18 11:45:25;;;;;;;;;;;16.40;98.40;;;;;;5093679;28;19912;-70
2021/09/18 11:47:53;;;;;;;;;;;16.40;98.20;;;;;;5092944;28;19912;-70
2021/09/18 11:50:23;;;;;;;;;;;16.40;98.60;;;;;;5093684;28;19931;-70
2021/09/18 11:52:50;;;;;;;;;;;16.40;98.70;;;;;;5093644;28;19990;-70
2021/09/18 11:55:37;;;;;;;;;;;16.30;98.50;;;;;;5093570;28;19912;-71
2021/09/18 11:58:06;;;;;;;;;;;16.30;98.00;;;;;;5093107;28;19908;-71
2021/09/18 12:00:34;;;;;;;;;;;16.30;98.30;;;;;;5093256;28;20049;-71
2021/09/18 12:03:01;;;;;;;;;;;16.20;98.20;;;;;;5093457;28;20007;-71
2021/09/18 12:05:27;;;;;;;;;;;16.20;98.00;;;;;;5092096;28;19908;-71
2021/09/18 12:07:54;;;;;;;;;;;16.20;97.90;;;;;;5093182;28;20370;-71
2021/09/18 12:10:22;;;;;;;;;;;16.20;97.70;;;;;;5093481;28;20008;-70
2021/09/18 12:12:54;;;;;;;;;;;16.10;96.80;;;;;;5093000;28;19908;-71
2021/09/18 12:15:31;;;;;;;;;;;16.10;96.30;;;;;;5093565;28;20011;-70
2021/09/18 12:17:58;;;;;;;;;;;16.10;96.10;;;;;;5093327;28;20003;-72
2021/09/18 12:20:25;;;;;;;;;;;16.00;96.40;;;;;;5095577;28;19908;-71
2021/09/18 12:22:52;;;;;;;;;;;16.10;94.90;;;;;;5095416;28;19920;-72
2021/09/18 12:25:26;;;;;;;;;;;16.10;95.00;;;;;;5096473;28;19919;-72
2021/09/18 12:27:56;;;;;;;;;;;16.00;94.90;;;;;;5095289;28;19908;-70
2021/09/18 12:30:27;;;;;;;;;;;15.90;94.00;;;;;;5096162;28;19908;-70
2021/09/18 12:33:27;;;;;;;;;;;15.90;93.60;;;;;;5099122;28;19957;-70
2021/09/18 12:36:02;;;;;;;;;;;15.90;93.80;;;;;;5073479;28;19915;-70
2021/09/18 12:38:29;;;;;;;;;;;15.90;93.90;;;;;;5093708;28;19912;-70
2021/09/18 12:40:59;;;;;;;;;;;15.70;93.50;;;;;;5094772;28;19912;-70
2021/09/18 12:43:25;;;;;;;;;;;15.70;93.60;;;;;;5090749;28;19917;-69
2021/09/18 12:46:02;;;;;;;;;;;15.70;93.10;;;;;;5093787;28;19951;-69
2021/09/18 12:48:29;;;;;;;;;;;15.70;93.00;;;;;;5098386;28;19912;-70
2021/09/18 12:50:56;;;;;;;;;;;15.70;93.30;;;;;;5098320;28;19908;-69
2021/09/18 12:53:36;;;;;;;;;;;15.60;93.00;;;;;;5095876;28;19991;-69
2021/09/18 12:56:15;;;;;;;;;;;15.60;92.50;;;;;;5094304;28;19908;-68
2021/09/18 12:58:43;;;;;;;;;;;15.60;92.40;;;;;;5094846;28;19912;-70
2021/09/18 13:01:10;;;;;;;;;;;15.60;92.00;;;;;;5094343;28;19908;-70
2021/09/18 13:03:37;;;;;;;;;;;15.60;91.10;;;;;;5093973;28;19970;-70
2021/09/18 13:06:14;;;;;;;;;;;15.50;90.80;;;;;;5093675;28;19915;-70
2021/09/18 13:08:44;;;;;;;;;;;15.60;90.70;;;;;;5093586;28;19908;-70
2021/09/18 13:11:22;;;;;;;;;;;15.50;90.70;;;;;;5093713;28;19909;-69
2021/09/18 13:13:49;;;;;;;;;;;15.50;90.10;;;;;;5093422;28;19916;-69
2021/09/18 13:16:17;;;;;;;;;;;15.50;87.70;;;;;;5093996;28;19931;-70
2021/09/18 13:18:44;;;;;;;;;;;15.60;88.00;;;;;;5093925;28;19908;-69
2021/09/18 13:21:11;;;;;;;;;;;15.50;86.40;;;;;;5094081;28;19963;-69
2021/09/18 13:23:37;;;;;;;;;;;15.60;86.70;;;;;;5093649;28;19922;-70
2021/09/18 13:26:04;;;;;;;;;;;15.50;86.60;;;;;;5093880;28;19993;-70
2021/09/18 13:28:31;;;;;;;;;;;15.50;87.30;;;;;;5093580;28;20256;-70
2021/09/18 13:30:58;;;;;;;;;;;15.50;86.00;;;;;;5093690;28;19908;-70
2021/09/18 13:33:25;;;;;;;;;;;15.50;85.80;;;;;;5093415;28;20014;-70
2021/09/18 13:35:52;;;;;;;;;;;15.50;85.90;;;;;;5093397;28;19990;-70
2021/09/18 13:38:19;;;;;;;;;;;15.50;85.90;;;;;;5093444;28;19912;-71
2021/09/18 13:40:46;;;;;;;;;;;15.40;86.10;;;;;;5093516;28;19943;-71
2021/09/18 13:43:13;;;;;;;;;;;15.40;85.60;;;;;;5108410;28;19973;-72
2021/09/18 13:45:40;;;;;;;;;;;15.30;87.00;;;;;;5093476;28;20461;-71
2021/09/18 13:48:06;;;;;;;;;;;15.30;86.30;;;;;;5093219;28;19961;-71
2021/09/18 13:50:33;;;;;;;;;;;15.30;86.90;;;;;;5093110;28;20374;-71
2021/09/18 13:53:00;;;;;;;;;;;15.30;86.20;;;;;;5093377;28;19969;-71
2021/09/18 13:55:29;;;;;;;;;;;15.30;85.90;;;;;;5093215;28;19908;-71
2021/09/18 13:57:56;;;;;;;;;;;15.30;86.10;;;;;;5093032;28;19908;-71
2021/09/18 14:00:23;;;;;;;;;;;15.30;85.50;;;;;;5090800;28;20006;-72
2021/09/18 14:02:49;;;;;;;;;;;15.20;86.60;;;;;;5073063;28;19961;-71
2021/09/18 14:05:17;;;;;;;;;;;15.10;86.60;;;;;;5072596;28;20344;-72
2021/09/18 14:07:45;;;;;;;;;;;15.10;86.00;;;;;;5072126;28;19908;-70
2021/09/18 14:10:12;;;;;;;;;;;15.10;84.30;;;;;;5072539;28;19912;-70
2021/09/18 14:12:38;;;;;;;;;;;15.10;85.00;;;;;;5071803;28;20260;-70
2021/09/18 14:15:05;;;;;;;;;;;15.10;84.60;;;;;;5072650;28;19955;-70
2021/09/18 14:17:32;;;;;;;;;;;15.10;85.10;;;;;;5072234;28;20292;-70
2021/09/18 14:19:59;;;;;;;;;;;15.10;84.00;;;;;;5072702;28;19951;-70
2021/09/18 14:22:26;;;;;;;;;;;15.10;86.10;;;;;;5072453;28;19913;-69